Terminal Aerodrome Forecast
Issued by NWS

Home | Current Version | Previous Version | Text Only | Print | Product List | Glossary On
Versions: 1 2 3 4 5 6 7 8 9 10 11 12 13 14 15 16 17
000
FTUS43 KSGF 020200 AAA
TAFJLN
TAF AMD
KJLN 020234Z 0203/0224 18015G22KT P6SM SCT100
     FM021000 17013KT P6SM BKN050 OVC100
      TEMPO 0210/0214 3SM -TSRA BR OVC030CB
     FM021400 18012KT 3SM -TSRA BR SCT030 BKN050CB
     FM021800 21012KT 3SM -TSRA BR SCT020CB OVC030=

USA.gov is the U.S. government's official web portal to all federal, state and local government web resources and services.